Archival Weather

Republic

Farmingdale, New York (KFRG)

Report from: Saturday, January 27, 2024 9:53 PM EST
Current time: Monday, June 17, 2024 3:51 AM EDT

Current weather – Weather history – Daily summaries
Weather forecast

Temperature5.6°C (42.1°F)
Wind chill4.6°C (40.2°F)
Dew point3.3°C (37.9°F)
Winds 3 kts (1.5 m/s, 3.5 mph) Southeast (130°)
Visibility10 mi. (16.1 km)
Clouds Few clouds 800 ft. (244 m)
Ceiling: Overcast 2,400 ft. (732 m)
Altimeter30.21 in.Hg (1023 mB)
Relative humidity85 %
Density altitude-1,351 ft. (-412 m)
Sea-level pressure102.3 kPa (1023 mB, 30.21 in.Hg)
Remarks Fully automated report
Automated weather observing station without precipitation discriminator
Pressure falling more quickly
Flight conditions Marginal Visual Meteorological Conditions
Raw dataKFRG 280253Z AUTO 13003KT 10SM FEW008 OVC024 06/03 A3021 RMK AO1 SLP230 T00560033 58004
An error has occurred. This application may no longer respond until reloaded. Reload 🗙